Latest Weather Observations for Cerberus

IDV60801

Issued at 11:02 pm EST Thursday 25 August 2016 (issued every 30 minutes, with the page automatically refreshed every 10 minutes)

About weather observations | Map of weather stations | Latest weather observations for VIC | Other Formats
Station Details ID: 086361 Name: CERBERUS Lat: -38.36 Lon: 145.18 Height: 12.69 m
Data from the previous 72 hours. | See also: Recent months at Cerberus
Date/Time
EST
Temp
°C
App
Temp
°C
Dew
Point
°C
Rel
Hum
%
Delta-T
°C
Wind Press
QNH
hPa
Press
MSL
hPa
Rain since
9am
mm
Dir  Spd
km/h
Gust
km/h
Spd
kts
Gust
kts
25/11:00pm 9.9 6.1 4.1 67 2.6 SW 13 22 7 12 1018.8 1018.8 1.8
25/10:30pm 8.6 6.3 5.5 81 1.4 SW 7 19 4 10 1018.7 1018.7 1.8
25/10:00pm 8.0 7.0 5.6 85 1.1 CALM 0 0 0 0 1018.8 1018.8 1.8
25/09:30pm 8.9 7.6 5.8 81 1.4 SW 2 11 1 6 1018.7 1018.7 1.8
25/09:00pm 7.8 6.7 4.9 82 1.3 CALM 0 0 0 0 1018.4 1018.4 1.8
25/08:30pm 9.5 7.2 5.5 76 1.8 SW 7 19 4 10 1018.3 1018.3 1.8
25/08:00pm 8.7 7.8 6.2 84 1.1 CALM 0 0 0 0 1018.2 1018.2 1.8
25/07:30pm 9.5 8.3 6.4 81 1.4 SSW 2 13 1 7 1017.9 1017.9 1.6
25/07:00pm 9.6 5.5 6.0 78 1.7 SSW 17 26 9 14 1017.5 1017.5 1.2
25/06:30pm 9.4 8.1 5.8 78 1.6 W 2 11 1 6 1017.0 1017.0 1.2
25/06:00pm 10.2 6.8 6.0 75 1.9 WSW 13 19 7 10 1016.5 1016.5 1.2
25/05:30pm 10.7 8.4 5.9 72 2.2 WSW 7 19 4 10 1016.3 1016.3 1.2
25/05:00pm 11.7 7.5 5.8 67 2.7 SW 17 24 9 13 1015.8 1015.8 1.2
25/04:30pm 11.7 7.2 6.0 68 2.7 SW 19 28 10 15 1015.6 1015.6 1.2
25/04:00pm 11.1 9.3 7.8 80 1.6 SSW 7 26 4 14 1015.5 1015.5 1.2
25/03:30pm 11.8 7.7 4.5 61 3.3 SW 15 26 8 14 1015.4 1015.4 0.4
25/03:00pm 12.1 9.2 6.4 68 2.7 SW 11 20 6 11 1015.3 1015.3 0.4
25/02:30pm 9.7 5.1 5.7 76 1.8 SSW 19 32 10 17 1015.3 1015.3 0.2
25/02:00pm 12.3 7.7 5.5 63 3.2 SW 19 28 10 15 1014.8 1014.8 0.2
25/01:30pm 12.1 7.4 5.3 63 3.1 SW 19 28 10 15 1014.7 1014.7 0.2
25/01:00pm 12.0 7.4 5.4 64 3.1 SSW 19 32 10 17 1014.7 1014.7 0.2
25/12:30pm 11.5 7.6 5.4 66 2.8 WSW 15 22 8 12 1014.9 1014.9 0.2
25/12:00pm 9.2 4.0 5.6 78 1.6 SW 22 35 12 19 1015.0 1015.0 0.2
25/11:30am 12.3 7.9 6.6 68 2.7 SW 19 33 10 18 1014.8 1014.8 0.0
25/11:00am 11.9 7.1 4.6 61 3.3 SW 19 30 10 16 1014.8 1014.8 0.0
25/10:30am 11.1 6.5 3.9 61 3.2 SW 17 30 9 16 1014.5 1014.5 0.0
25/10:00am 10.9 6.5 5.0 67 2.7 SSW 17 24 9 13 1014.3 1014.3 0.0
25/09:30am 10.1 7.1 5.9 75 1.9 SSW 11 17 6 9 1014.1 1014.1 0.0
25/09:00am 9.4 7.4 6.3 81 1.4 WNW 6 11 3 6 1014.1 1014.1 3.4
25/08:30am 7.9 6.2 5.9 87 0.9 W 4 13 2 7 1014.0 1014.0 3.4
25/08:00am 7.1 6.1 5.6 90 0.7 CALM 0 9 0 5 1013.8 1013.8 3.4
25/07:30am 5.9 4.3 4.4 90 0.6 NNW 2 9 1 5 1013.3 1013.4 2.6
25/07:00am 7.0 5.6 5.5 90 0.7 WSW 2 13 1 7 1013.2 1013.3 2.6
25/06:30am 6.5 5.4 5.0 90 0.7 CALM 0 0 0 0 1012.8 1012.9 2.4
25/06:00am 7.0 5.5 5.2 88 0.8 WSW 2 9 1 5 1012.6 1012.7 2.4
25/05:30am 7.1 6.0 5.1 87 0.9 CALM 0 9 0 5 1012.2 1012.3 2.4
25/05:00am 7.5 4.3 5.3 86 1.0 W 11 17 6 9 1012.2 1012.3 1.8
25/04:30am 7.0 5.1 5.0 87 0.9 W 4 11 2 6 1012.1 1012.2 1.8
25/04:00am 7.5 4.8 5.6 88 0.9 W 9 13 5 7 1012.0 1012.1 1.8
25/03:30am 7.3 6.3 5.4 88 0.8 CALM 0 0 0 0 1012.1 1012.2 1.8
25/03:00am 7.5 5.3 5.3 86 1.0 W 6 11 3 6 1012.1 1012.2 1.8
25/02:30am 6.7 4.9 5.3 91 0.6 WNW 4 11 2 6 1012.3 1012.4 1.6
25/02:00am 6.2 5.0 4.4 88 0.8 CALM 0 0 0 0 1012.4 1012.5 1.6
25/01:30am 6.9 5.7 4.7 86 1.0 CALM 0 0 0 0 1012.6 1012.7 1.6
25/01:00am 6.7 5.2 5.0 89 0.7 SW 2 11 1 6 1012.9 1013.0 1.6
25/12:30am 6.0 4.7 4.3 89 0.7 CALM 0 0 0 0 1012.9 1013.0 1.4
25/12:00am 6.8 5.0 5.3 90 0.7 W 4 9 2 5 1013.0 1013.1 1.4
 
Date/Time
EST
Temp
°C
App
Temp
°C
Dew
Point
°C
Rel
Hum
%
Delta-T
°C
Wind Press
QNH
hPa
Press
MSL
hPa
Rain since
9am
mm
Dir  Spd
km/h
Gust
km/h
Spd
kts
Gust
kts
24/11:30pm 5.6 4.3 4.2 91 0.6 CALM 0 11 0 6 1013.3 1013.4 1.4
24/11:00pm 6.2 5.0 4.7 90 0.6 CALM 0 0 0 0 1013.4 1013.5 1.4
24/10:30pm 6.8 5.7 5.1 89 0.7 CALM 0 9 0 5 1013.6 1013.6 1.2
24/10:00pm 8.0 5.3 5.6 85 1.1 WSW 9 19 5 10 1013.8 1013.8 1.2
24/09:30pm 5.9 4.4 3.1 82 1.2 CALM 0 7 0 4 1013.9 1013.9 0.0
24/09:00pm 6.4 5.0 3.6 82 1.2 CALM 0 0 0 0 1014.0 1014.0 0.0
24/08:30pm 6.2 4.7 3.0 80 1.3 CALM 0 0 0 0 1014.1 1014.1 0.0
24/08:00pm 6.7 5.3 3.5 80 1.4 CALM 0 0 0 0 1014.2 1014.2 0.0
24/07:30pm 7.8 6.4 3.7 75 1.8 CALM 0 0 0 0 1014.3 1014.3 0.0
24/07:00pm 8.6 7.2 3.8 72 2.1 CALM 0 0 0 0 1014.1 1014.1 0.0
24/06:30pm 9.0 7.2 3.6 69 2.3 SSW 2 9 1 5 1013.9 1013.9 0.0
24/06:00pm 10.2 7.7 4.6 68 2.5 SSW 7 13 4 7 1013.8 1013.8 0.0
24/05:30pm 9.9 7.9 4.5 69 2.4 SSW 4 13 2 7 1013.6 1013.6 0.0
24/05:00pm 10.8 7.8 5.8 71 2.3 SSW 11 17 6 9 1013.6 1013.6 0.0
24/04:30pm 11.7 9.3 6.8 72 2.3 SW 9 15 5 8 1013.6 1013.6 0.0
24/04:00pm 11.5 9.8 6.0 69 2.6 S 4 13 2 7 1013.6 1013.6 0.0
24/03:30pm 11.1 10.3 6.6 74 2.1 CALM 0 0 0 0 1013.7 1013.7 0.0
24/03:00pm 10.6 10.0 7.3 80 1.6 CALM 0 9 0 5 1013.8 1013.8 0.0
24/02:30pm 10.7 8.8 6.5 75 2.0 SSW 6 13 3 7 1013.8 1013.8 0.0
24/02:00pm 10.5 9.9 7.4 81 1.5 CALM 0 0 0 0 1014.0 1014.0 0.0
24/01:30pm 9.7 8.2 7.0 83 1.3 SSW 4 11 2 6 1014.3 1014.3 0.0
24/01:00pm 10.8 8.9 6.6 75 2.0 SSW 6 13 3 7 1014.4 1014.4 0.0
24/12:30pm 10.5 7.5 5.9 73 2.1 SSW 11 15 6 8 1014.6 1014.6 0.0
24/12:00pm 11.1 8.4 5.4 68 2.6 S 9 13 5 7 1015.0 1015.0 0.0
24/11:30am 10.9 9.7 6.3 73 2.2 SE 2 9 1 5 1015.4 1015.4 0.0
24/11:00am 11.0 10.4 7.5 79 1.7 CALM 0 9 0 5 1015.7 1015.7 0.0
24/10:30am 9.7 9.0 6.8 82 1.4 CALM 0 0 0 0 1016.0 1016.0 0.0
24/10:00am 9.7 9.0 7.0 83 1.3 CALM 0 9 0 5 1016.1 1016.1 0.0
24/09:30am 9.9 9.4 7.7 86 1.1 CALM 0 7 0 4 1016.3 1016.3 0.0
24/09:00am 9.6 9.1 8.0 90 0.8 CALM 0 4 0 2 1016.4 1016.4 0.0
24/08:30am 8.3 7.7 7.2 93 0.5 CALM 0 0 0 0 1016.4 1016.4 0.0
24/08:00am 7.0 6.1 6.1 94 0.4 CALM 0 0 0 0 1016.6 1016.6 0.0
24/07:30am 6.1 5.0 5.2 94 0.4 CALM 0 7 0 4 1016.5 1016.5 0.0
24/07:00am 5.1 3.8 4.2 94 0.4 CALM 0 0 0 0 1016.5 1016.5 0.0
24/06:30am 4.1 2.6 3.1 93 0.4 CALM 0 0 0 0 1016.4 1016.4 0.0
24/06:00am 3.5 1.9 2.5 93 0.4 CALM 0 0 0 0 1016.3 1016.3 0.0
24/05:30am 4.0 2.5 3.0 93 0.4 CALM 0 0 0 0 1016.4 1016.4 0.0
24/05:00am 5.1 3.8 4.1 93 0.4 CALM 0 0 0 0 1016.4 1016.4 0.0
24/04:30am 4.5 3.1 3.5 93 0.4 CALM 0 7 0 4 1016.3 1016.3 0.0
24/04:00am 4.3 2.9 3.3 93 0.4 CALM 0 0 0 0 1016.2 1016.2 0.0
24/03:30am 4.2 2.7 3.2 93 0.4 CALM 0 0 0 0 1016.4 1016.4 0.0
24/03:00am 4.8 3.4 3.8 93 0.4 CALM 0 0 0 0 1016.5 1016.5 0.0
24/02:30am 4.6 3.2 3.4 92 0.5 CALM 0 0 0 0 1016.8 1016.8 0.0
24/02:00am 5.1 3.8 3.9 92 0.5 CALM 0 0 0 0 1017.0 1017.0 0.0
24/01:30am 6.5 5.5 5.5 93 0.4 CALM 0 0 0 0 1017.2 1017.2 0.0
24/01:00am 6.2 5.1 5.2 93 0.4 CALM 0 0 0 0 1017.4 1017.4 0.0
24/12:30am 5.3 4.0 4.1 92 0.5 CALM 0 0 0 0 1017.4 1017.4 0.0
24/12:00am 4.5 3.1 3.3 92 0.5 CALM 0 0 0 0 1017.6 1017.6 0.0
 
Date/Time
EST
Temp
°C
App
Temp
°C
Dew
Point
°C
Rel
Hum
%
Delta-T
°C
Wind Press
QNH
hPa
Press
MSL
hPa
Rain since
9am
mm
Dir  Spd
km/h
Gust
km/h
Spd
kts
Gust
kts
23/11:30pm 4.4 2.9 3.2 92 0.5 CALM 0 0 0 0 1017.5 1017.5 0.0
23/11:00pm 3.9 2.3 2.6 91 0.5 CALM 0 0 0 0 1017.4 1017.4 0.0
23/10:30pm 4.1 2.5 2.6 90 0.6 CALM 0 0 0 0 1017.5 1017.5 0.0
23/10:00pm 5.0 3.6 3.5 90 0.6 CALM 0 0 0 0 1017.7 1017.7 0.0
23/09:30pm 5.9 4.7 4.4 90 0.6 CALM 0 0 0 0 1017.7 1017.7 0.0
23/09:00pm 5.3 3.9 3.5 88 0.7 CALM 0 0 0 0 1018.0 1018.0 0.0
23/08:30pm 6.6 5.4 4.6 87 0.9 CALM 0 0 0 0 1017.9 1017.9 0.0
23/08:00pm 6.9 5.7 4.6 85 1.0 CALM 0 0 0 0 1017.9 1017.9 0.0
23/07:30pm 7.6 6.5 4.9 83 1.2 CALM 0 0 0 0 1017.9 1017.9 0.0
23/07:00pm 8.3 7.3 5.4 82 1.3 CALM 0 6 0 3 1018.0 1018.0 0.0
23/06:30pm 8.8 7.0 5.2 78 1.6 SW 4 7 2 4 1017.9 1017.9 0.0
23/06:00pm 9.6 7.4 5.2 74 2.0 SW 6 9 3 5 1017.9 1017.9 0.0
23/05:30pm 10.8 8.4 4.3 64 2.9 SSW 6 9 3 5 1017.7 1017.7 0.0
23/05:00pm 11.4 8.3 3.7 59 3.4 SW 9 15 5 8 1017.5 1017.5 0.0
23/04:30pm 11.4 8.2 2.9 56 3.7 SSW 9 15 5 8 1017.6 1017.6 0.0
23/04:00pm 12.3 8.9 3.8 56 3.8 SW 11 17 6 9 1017.4 1017.4 0.0
23/03:30pm 12.6 9.2 3.8 55 4.0 SSW 11 17 6 9 1017.0 1017.0 0.0
23/03:00pm 12.5 9.0 3.5 54 4.0 SSW 11 17 6 9 1016.8 1016.8 0.0
23/02:30pm 12.7 9.4 4.4 57 3.8 SW 11 19 6 10 1016.6 1016.6 0.0
23/02:00pm 12.7 8.8 5.4 61 3.4 SW 15 24 8 13 1016.5 1016.5 0.0
23/01:30pm 12.9 9.7 5.3 60 3.5 SSW 11 19 6 10 1016.4 1016.4 0.0
23/01:00pm 12.7 9.4 6.3 65 3.0 SW 13 19 7 10 1016.6 1016.6 0.0
23/12:30pm 12.7 9.3 5.8 63 3.2 SSW 13 19 7 10 1016.8 1016.8 0.0
23/12:00pm 12.5 9.0 7.0 69 2.6 SW 15 22 8 12 1017.1 1017.1 0.0
23/11:30am 12.6 9.5 3.8 55 4.0 SSW 9 17 5 9 1017.3 1017.3 0.0
23/11:00am 12.7 9.7 3.9 55 4.0 SSW 9 17 5 9 1017.5 1017.5 0.0
23/10:30am 12.3 9.6 3.8 56 3.8 SSW 7 15 4 8 1017.7 1017.7 0.0
23/10:00am 11.6 9.3 2.6 54 3.9 SSW 4 11 2 6 1017.9 1017.9 0.0
23/09:30am 11.7 10.6 5.1 64 3.0 CALM 0 0 0 0 1017.9 1017.9 0.0
23/09:00am 9.9 9.2 7.0 82 1.4 CALM 0 0 0 0 1017.8 1017.8 0.2
23/08:30am 6.9 5.8 5.2 89 0.7 CALM 0 0 0 0 1017.7 1017.7 0.2
23/08:00am 7.5 6.6 6.0 90 0.7 CALM 0 0 0 0 1017.6 1017.6 0.2
23/07:30am 5.9 4.7 4.7 92 0.5 CALM 0 0 0 0 1017.3 1017.3 0.2
23/07:00am 4.5 3.0 3.2 91 0.5 CALM 0 0 0 0 1016.9 1016.9 0.2
23/06:30am 3.5 1.8 2.0 90 0.6 CALM 0 0 0 0 1016.7 1016.7 0.2
23/06:00am 4.2 2.6 2.7 90 0.6 CALM 0 0 0 0 1016.5 1016.5 0.2
23/05:30am 4.9 3.4 3.2 89 0.7 CALM 0 0 0 0 1016.3 1016.3 0.2
23/05:00am 6.0 4.7 4.2 88 0.8 CALM 0 0 0 0 1016.1 1016.1 0.2
23/04:30am 6.7 5.5 4.4 85 1.0 CALM 0 0 0 0 1015.9 1015.9 0.2
23/04:00am 8.1 7.2 5.9 86 1.0 CALM 0 0 0 0 1015.8 1015.8 0.2
23/03:30am 8.3 7.3 5.8 84 1.1 CALM 0 0 0 0 1015.8 1015.8 0.2
23/03:00am 8.2 7.2 5.7 84 1.1 CALM 0 0 0 0 1015.7 1015.7 0.2
23/02:30am 7.8 6.8 5.4 85 1.1 CALM 0 0 0 0 1015.8 1015.8 0.2
23/02:00am 8.3 7.3 5.8 84 1.1 CALM 0 0 0 0 1015.9 1015.9 0.2
23/01:30am 9.0 8.3 7.0 87 0.9 CALM 0 0 0 0 1016.1 1016.1 0.2
23/01:00am 9.0 8.4 7.3 89 0.8 CALM 0 0 0 0 1016.2 1016.2 0.2
23/12:30am 9.1 8.5 7.2 88 0.9 CALM 0 0 0 0 1016.1 1016.1 0.2
23/12:00am 9.0 8.3 7.1 88 0.9 CALM 0 0 0 0 1016.2 1016.2 0.2
 
Date/Time
EST
Temp
°C
App
Temp
°C
Dew
Point
°C
Rel
Hum
%
Delta-T
°C
Wind Press
QNH
hPa
Press
MSL
hPa
Rain since
9am
mm
Dir  Spd
km/h
Gust
km/h
Spd
kts
Gust
kts
22/11:30pm 9.2 8.5 7.0 86 1.0 CALM 0 0 0 0 1016.0 1016.0 0.2

Other Formats:

Comma delimited format used in spreadsheet applications
http://www.bom.gov.au/fwo/IDV60801/IDV60801.94898.axf

JavaScript Object Notation format (JSON) in row-major order
http://www.bom.gov.au/fwo/IDV60801/IDV60801.94898.json